EW7581 Weather Reports


Display with metric or nautical units.
time (UTC)temp
F
wind
direction
speed
MPH
gust
MPH
rain 1hr
in
rain 24hr
in
rain mn
in
humidity
%
barometer
mb
20210614125523 37 247 0.0 0.0 0.00 0.00 0.00 75 1011.1
20210614124534 38 247 0.0 0.0 0.00 0.00 0.00 75 1011.5
20210614123506 38 247 0.0 0.0 0.00 0.00 0.00 74 1011.5
20210614122517 38 247 0.0 0.0 0.00 0.00 0.00 74 1011.5
20210614121510 38 247 0.0 0.0 0.00 0.00 0.00 74 1011.1
20210614120524 39 247 0.0 0.0 0.00 0.00 0.00 74 1011.5
20210614115535 39 247 0.0 0.0 0.00 0.00 0.00 74 1011.5
20210614114510 39 247 0.0 0.0 0.00 0.00 0.00 73 1011.5
20210614113442 40 247 0.0 0.0 0.00 0.00 0.00 73 1011.1
20210614112416 40 247 0.0 0.0 0.00 0.00 0.00 72 1011.1
20210614111351 40 247 0.0 0.0 0.00 0.00 0.00 72 1011.1
20210614110346 41 247 0.0 0.0 0.00 0.00 0.00 72 1011.1
20210614105334 41 247 0.0 0.0 0.00 0.00 0.00 71 1011.1
20210614104336 42 247 0.0 0.0 0.00 0.00 0.00 71 1011.1
20210614103328 42 247 0.0 0.0 0.00 0.00 0.00 71 1011.1
20210614102320 43 247 0.0 0.0 0.00 0.00 0.00 71 1011.1
20210614101306 43 247 0.0 0.0 0.00 0.00 0.00 70 1011.1
20210614100258 44 247 0.0 0.0 0.00 0.00 0.00 70 1011.1
20210614095225 44 247 0.0 0.0 0.00 0.00 0.00 70 1011.1
20210614094201 45 247 0.0 0.0 0.00 0.00 0.00 69 1011.1
20210614093154 45 247 0.0 0.0 0.00 0.00 0.00 69 1011.5
20210614092124 46 247 0.0 0.0 0.00 0.00 0.00 68 1011.1
20210614091102 46 247 0.0 0.0 0.00 0.00 0.00 68 1011.5
20210614085108 48 225 0.0 0.0 0.00 0.00 0.00 67 1011.5
20210614084033 49 225 0.0 0.0 0.00 0.00 0.00 67 1011.5
20210614083017 50 135 0.0 0.0 0.00 0.00 0.00 66 1011.5
20210614081940 50 292 0.0 0.0 0.00 0.00 0.00 65 1011.5
20210614080957 51 292 0.0 0.0 0.00 0.00 0.00 66 1011.5
20210614075954 52 292 0.0 0.0 0.00 0.00 0.00 65 1011.5
20210614074939 53 292 0.0 0.0 0.00 0.00 0.00 64 1011.5
20210614073958 53 292 0.0 0.0 0.00 0.00 0.00 63 1011.8
20210614073001 54 292 0.0 0.0 0.00 0.00 0.00 62 1011.5
20210614072006 55 292 0.0 0.0 0.00 0.00 0.00 61 1011.8
20210614071006 56 292 0.0 0.0 0.00 0.00 0.00 60 1011.8
20210614070020 57 247 0.0 0.0 0.00 0.00 0.00 59 1011.5
20210614065042 58 270 0.0 0.0 0.00 0.00 0.00 57 1011.5
20210614064025 59 292 0.0 0.0 0.00 0.00 0.00 56 1011.5
20210614063019 61 270 0.0 0.0 0.00 0.00 0.00 53 1011.5
20210614062033 63 292 0.0 0.0 0.00 0.00 0.00 50 1011.1
20210614061036 67 292 0.0 0.0 0.00 0.00 0.00 46 1011.1
20210614060013 72 247 0.0 0.0 0.00 0.00 0.00 44 1011.1
20210614054953 72 270 0.0 0.0 0.00 0.00 0.00 45 1011.1
20210614054005 72 270 1.0 1.0 0.00 0.00 0.00 45 1011.1
20210614052944 70 247 0.0 0.0 0.00 0.00 0.00 50 1011.1
20210614051924 63 270 1.0 3.0 0.00 0.00 0.00 56 1011.1
20210614050905 62 337 1.0 3.0 0.00 0.00 0.00 55 1011.1
20210614045850 62 270 0.0 0.0 0.00 0.00 0.00 55 1011.5
20210614044818 62 270 0.0 2.0 0.00 0.00 0.00 54 1011.5
20210614043759 62 247 1.0 2.0 0.00 0.00 0.00 54 1011.1
20210614042734 62 270 0.0 0.0 0.00 0.00 0.00 53 1011.1
20210614041734 62 225 0.0 6.0 0.00 0.00 0.00 53 1011.1
20210614040737 63 270 5.0 6.0 0.00 0.00 0.00 53 1011.1
20210614035754 63 270 0.0 7.0 0.00 0.00 0.00 53 1011.1
20210614034731 63 247 0.0 0.0 0.00 0.00 0.00 53 1011.1
20210614033703 64 270 3.0 3.0 0.00 0.00 0.00 53 1011.1
20210614032721 64 270 0.0 6.0 0.00 0.00 0.00 53 1011.1
20210614031700 64 112 2.0 6.0 0.00 0.00 0.00 53 1011.1
20210614030721 64 0 1.0 1.0 0.00 0.00 0.00 54 1011.1
20210614025722 64 247 0.0 5.0 0.00 0.00 0.00 53 1011.1
20210614024726 64 247 1.0 1.0 0.00 0.00 0.00 53 1011.1
20210614023655 64 67 0.0 0.0 0.00 0.00 0.00 54 1011.1
20210614022702 64 292 1.0 3.0 0.00 0.00 0.00 55 1011.1
20210614021702 64 135 1.0 1.0 0.00 0.00 0.00 55 1011.1
20210614020708 64 292 1.0 5.0 0.00 0.00 0.00 55 1011.1
20210614015658 64 270 2.0 11.0 0.00 0.00 0.00 55 1011.1
20210614014644 64 315 3.0 6.0 0.00 0.00 0.00 56 1011.1
20210614013706 64 225 0.0 4.0 0.00 0.00 0.00 56 1011.1
20210614012642 64 270 6.0 6.0 0.00 0.00 0.00 56 1011.1
20210614011634 64 292 8.0 11.0 0.00 0.00 0.00 56 1011.5
20210614010640 64 247 5.0 5.0 0.00 0.00 0.00 57 1011.5
20210614005616 65 292 3.0 3.0 0.00 0.00 0.00 57 1011.5
20210614004625 64 247 0.0 10.0 0.00 0.00 0.00 57 1011.1
20210614003618 64 292 4.0 4.0 0.00 0.00 0.00 56 1011.1
20210614002620 64 337 0.0 0.0 0.00 0.00 0.00 57 1011.1
20210614001606 64 247 4.0 4.0 0.00 0.00 0.00 57 1011.1
20210614000626 64 270 1.0 3.0 0.00 0.00 0.00 57 1011.1
20210613235642 63 292 2.0 7.0 0.00 0.00 0.00 58 1011.1
20210613234638 63 270 3.0 7.0 0.00 0.00 0.00 58 1011.1
20210613233602 62 292 7.0 7.0 0.00 0.00 0.00 58 1011.1
20210613232558 63 225 1.0 6.0 0.00 0.00 0.00 58 1011.5
20210613231606 63 337 6.0 6.0 0.00 0.00 0.00 57 1011.5
20210613230545 62 247 1.0 6.0 0.00 0.00 0.00 58 1011.5
20210613225604 62 22 0.0 1.0 0.00 0.00 0.00 59 1011.1
20210613224526 62 337 3.0 9.0 0.00 0.00 0.00 58 1011.5
20210613223452 62 292 5.0 9.0 0.00 0.00 0.00 59 1011.5
20210613222419 62 247 6.0 8.0 0.00 0.00 0.00 59 1011.1
20210613221431 62 292 6.0 8.0 0.00 0.00 0.00 58 1011.5
20210613220419 62 270 1.0 6.0 0.00 0.00 0.00 59 1011.5
20210613215435 62 337 6.0 6.0 0.00 0.00 0.00 58 1011.8
20210613214409 62 315 6.0 6.0 0.00 0.00 0.00 59 1011.8
20210613213407 62 270 3.0 10.0 0.00 0.00 0.00 59 1011.8
20210613212410 61 270 3.0 10.0 0.00 0.00 0.00 59 1011.5
20210613211420 62 292 3.0 3.0 0.00 0.00 0.00 58 1011.8
20210613210358 63 337 2.0 3.0 0.00 0.00 0.00 59 1011.8
20210613205340 62 22 1.0 6.0 0.00 0.00 0.00 60 1011.8
20210613204312 62 337 3.0 8.0 0.00 0.00 0.00 59 1012.1
20210613203327 62 22 6.0 8.0 0.00 0.00 0.00 58 1012.1
20210613202343 62 337 3.0 8.0 0.00 0.00 0.00 57 1011.8
20210613201326 63 292 6.0 8.0 0.00 0.00 0.00 56 1011.8
20210613200338 64 67 1.0 6.0 0.00 0.00 0.00 56 1012.1
20210613195326 64 67 3.0 5.0 0.00 0.00 0.00 55 1011.8
20210613194327 64 0 0.0 6.0 0.00 0.00 0.00 55 1011.8
20210613193347 64 315 5.0 8.0 0.00 0.00 0.00 55 1011.8
20210613192341 64 22 3.0 8.0 0.00 0.00 0.00 55 1011.8
20210613191351 64 337 1.0 4.0 0.00 0.00 0.00 55 1011.8
20210613190331 64 292 3.0 3.0 0.00 0.00 0.00 55 1011.8
20210613185352 64 337 3.0 3.0 0.00 0.00 0.00 55 1011.8
20210613184409 64 292 4.0 4.0 0.00 0.00 0.00 55 1011.5
20210613183357 64 247 0.0 4.0 0.00 0.00 0.00 56 1011.8
20210613182409 64 247 1.0 1.0 0.00 0.00 0.00 55 1011.5
20210613181353 64 90 0.0 0.0 0.00 0.00 0.00 56 1011.8
20210613180317 64 247 1.0 1.0 0.00 0.00 0.00 55 1011.8
20210613175325 64 135 0.0 0.0 0.00 0.00 0.00 55 1011.8
20210613174323 66 337 0.0 1.0 0.00 0.00 0.00 54 1011.8
20210613173338 66 225 0.0 2.0 0.00 0.00 0.00 56 1011.8
20210613172357 64 225 1.0 1.0 0.00 0.00 0.00 60 1011.8
20210613171351 60 157 3.0 3.0 0.00 0.00 0.00 62 1012.1
20210613170357 60 90 1.0 3.0 0.00 0.00 0.00 62 1012.1
20210613165356 59 22 0.0 0.0 0.00 0.00 0.00 63 1011.8
20210613164358 59 157 0.0 0.0 0.00 0.00 0.00 62 1011.8
20210613163354 60 247 0.0 0.0 0.00 0.00 0.00 62 1011.8
20210613162400 61 90 0.0 0.0 0.00 0.00 0.00 65 1011.8
20210613161410 54 90 0.0 0.0 0.00 0.00 0.00 72 1012.1
20210613160353 52 157 0.0 1.0 0.00 0.00 0.00 73 1011.8
20210613155330 50 67 0.0 0.0 0.00 0.00 0.00 72 1011.8
20210613154318 50 90 0.0 0.0 0.00 0.00 0.00 71 1011.8
20210613153311 50 112 0.0 0.0 0.00 0.00 0.00 70 1011.8
20210613152326 50 90 0.0 1.0 0.00 0.00 0.00 68 1011.8
20210613151250 51 90 1.0 1.0 0.00 0.00 0.00 68 1011.5
20210613150215 52 112 0.0 0.0 0.00 0.00 0.00 69 1011.8
20210613145227 51 90 0.0 0.0 0.00 0.00 0.00 75 1011.5
20210613144213 45 157 0.0 0.0 0.00 0.00 0.00 82 1011.5
20210613143233 41 90 0.0 0.0 0.00 0.00 0.00 80 1011.5
20210613142205 39 135 0.0 0.0 0.00 0.00 0.00 79 1011.5
20210613141220 39 292 0.0 0.0 0.00 0.00 0.00 78 1011.1
20210613140232 38 67 0.0 0.0 0.00 0.00 0.00 78 1011.1
20210613135213 38 157 0.0 0.0 0.00 0.00 0.00 78 1011.1
20210613134201 37 135 0.0 0.0 0.00 0.00 0.00 76 1011.1
20210613133219 37 225 0.0 0.0 0.00 0.00 0.00 76 1011.1
20210613132228 37 225 0.0 0.0 0.00 0.00 0.00 76 1011.1
20210613131157 37 247 0.0 0.0 0.00 0.00 0.00 75 1011.1
20210613130149 37 135 0.0 0.0 0.00 0.00 0.00 75 1010.8